createdAt,value
2023-03-03T00:01:37.628Z,95994.38
2023-03-03T00:04:04.144Z,95975.13
2023-03-03T00:06:30.820Z,95996.41
2023-03-03T00:08:58.038Z,95992.66
2023-03-03T00:11:24.789Z,95989.66
2023-03-03T00:13:55.606Z,95957.25
2023-03-03T00:16:40.692Z,95976.88
2023-03-03T00:19:16.608Z,96005.34
2023-03-03T00:21:46.194Z,96003.75
2023-03-03T00:24:23.644Z,96003.59
2023-03-03T00:26:55.347Z,95999.63
2023-03-03T00:29:30.587Z,95999.03
2023-03-03T00:32:09.670Z,95979.94
2023-03-03T00:34:36.582Z,95985.72
2023-03-03T00:37:03.015Z,95992.50
2023-03-03T00:39:35.376Z,95996.47
2023-03-03T00:42:05.788Z,96007.00
2023-03-03T00:44:45.463Z,96009.00
2023-03-03T00:47:35.493Z,96004.66
2023-03-03T00:50:11.085Z,96015.03
2023-03-03T00:52:45.715Z,96010.09
2023-03-03T00:55:12.464Z,96013.66
2023-03-03T00:57:38.920Z,96013.25
2023-03-03T01:00:09.129Z,96005.91
2023-03-03T01:02:35.835Z,96010.03
2023-03-03T01:05:02.302Z,95996.47
2023-03-03T01:07:28.765Z,96010.78
2023-03-03T01:09:55.205Z,96001.03
2023-03-03T01:12:21.824Z,95999.00
2023-03-03T01:14:49.295Z,95975.38
2023-03-03T01:17:15.789Z,95994.69
2023-03-03T01:19:42.236Z,96002.47
2023-03-03T01:22:08.678Z,96014.47
2023-03-03T01:24:35.157Z,95962.75
2023-03-03T01:27:01.590Z,95959.56
2023-03-03T01:29:28.157Z,95956.16
2023-03-03T01:31:54.734Z,95991.72
2023-03-03T01:34:21.774Z,95950.75
2023-03-03T01:36:48.359Z,95987.16
2023-03-03T01:39:14.808Z,95993.53
2023-03-03T01:41:41.501Z,95982.03
2023-03-03T01:44:14.142Z,95953.19
2023-03-03T01:46:50.044Z,95986.97
2023-03-03T01:49:36.329Z,95982.22
2023-03-03T01:52:13.006Z,95969.53
2023-03-03T01:54:44.036Z,95986.22
2023-03-03T01:57:23.929Z,95979.84
2023-03-03T01:59:53.131Z,95967.09
2023-03-03T02:02:20.060Z,95941.25
2023-03-03T02:04:46.544Z,95979.59
2023-03-03T02:07:16.233Z,95925.78
2023-03-03T02:10:12.330Z,95982.41
2023-03-03T02:12:43.593Z,95970.47
2023-03-03T02:15:17.378Z,95984.00
2023-03-03T02:17:45.087Z,95981.19
2023-03-03T02:20:33.322Z,95987.59
2023-03-03T02:23:29.528Z,95976.63
2023-03-03T02:25:58.786Z,95985.22
2023-03-03T02:28:31.071Z,95985.66
2023-03-03T02:31:02.245Z,95996.81
2023-03-03T02:33:29.551Z,95981.09
2023-03-03T02:35:56.240Z,95977.84
2023-03-03T02:38:53.452Z,95978.81
2023-03-03T02:41:32.899Z,95980.44
2023-03-03T02:44:12.946Z,95977.47
2023-03-03T02:46:42.482Z,95981.81
2023-03-03T02:49:11.689Z,95982.16
2023-03-03T02:51:38.945Z,95969.28
2023-03-03T02:54:06.728Z,95980.19
2023-03-03T02:56:34.570Z,95972.63
2023-03-03T02:59:01.379Z,95963.44
2023-03-03T03:01:36.861Z,95979.06
2023-03-03T03:04:14.452Z,95963.94
2023-03-03T03:06:44.282Z,95980.38
2023-03-03T03:09:13.186Z,95960.69
2023-03-03T03:11:40.308Z,95965.25
2023-03-03T03:14:09.808Z,95973.56
2023-03-03T03:16:36.989Z,95973.94
2023-03-03T03:19:04.881Z,95946.13
2023-03-03T03:21:33.061Z,95983.13
2023-03-03T03:24:00.610Z,95971.34
2023-03-03T03:26:27.801Z,95972.56
2023-03-03T03:28:54.714Z,95940.00
2023-03-03T03:31:22.327Z,95995.03
2023-03-03T03:33:49.067Z,95989.63
2023-03-03T03:36:17.281Z,95977.88
2023-03-03T03:38:43.866Z,95972.66
2023-03-03T03:41:13.095Z,95991.84
2023-03-03T03:43:40.403Z,95983.69
2023-03-03T03:46:07.485Z,95974.53
2023-03-03T03:48:35.192Z,95986.81
2023-03-03T03:51:03.856Z,95987.03
2023-03-03T03:53:31.986Z,95970.16
2023-03-03T03:55:58.798Z,95924.25
2023-03-03T03:58:25.812Z,95970.53
2023-03-03T04:01:03.533Z,95977.97
2023-03-03T04:03:30.246Z,95967.63
2023-03-03T04:05:57.084Z,95942.09
2023-03-03T04:08:23.804Z,95988.91
2023-03-03T04:10:50.325Z,95927.47
2023-03-03T04:13:17.669Z,95988.59
2023-03-03T04:15:45.148Z,95980.81
2023-03-03T04:18:11.810Z,95974.25
2023-03-03T04:20:40.202Z,95969.47
2023-03-03T04:23:07.326Z,95963.91
2023-03-03T04:25:34.207Z,95992.53
2023-03-03T04:28:03.950Z,95989.50
2023-03-03T04:30:32.440Z,95983.78
2023-03-03T04:32:59.475Z,95996.31
2023-03-03T04:35:27.222Z,95978.53
2023-03-03T04:37:54.085Z,95978.97
2023-03-03T04:40:20.715Z,95971.38
2023-03-03T04:42:49.812Z,95969.00
2023-03-03T04:45:16.489Z,95992.66
2023-03-03T04:47:44.990Z,95968.66
2023-03-03T04:50:12.721Z,95973.53
2023-03-03T04:52:40.229Z,95983.72
2023-03-03T04:55:10.558Z,95982.00
2023-03-03T04:57:38.294Z,95982.00
2023-03-03T05:00:06.661Z,95991.97
2023-03-03T05:02:33.299Z,95991.59
2023-03-03T05:05:00.604Z,95972.53
2023-03-03T05:07:27.171Z,95983.38
2023-03-03T05:09:53.648Z,95988.16
2023-03-03T05:12:20.134Z,95951.41
2023-03-03T05:14:46.665Z,95979.34
2023-03-03T05:17:13.197Z,95941.22
2023-03-03T05:19:39.992Z,95950.41
2023-03-03T05:22:06.584Z,95952.63
2023-03-03T05:24:33.036Z,95953.63
2023-03-03T05:26:59.648Z,95978.78
2023-03-03T05:29:26.284Z,95957.75
2023-03-03T05:31:52.799Z,96000.63
2023-03-03T05:34:19.356Z,96004.38
2023-03-03T05:36:45.789Z,95999.53
2023-03-03T05:39:12.274Z,96014.06
2023-03-03T05:41:38.820Z,95990.00
2023-03-03T05:44:05.745Z,95982.22
2023-03-03T05:46:32.320Z,95963.69
2023-03-03T05:48:58.875Z,95961.13
2023-03-03T05:51:25.592Z,95958.19
2023-03-03T05:53:52.055Z,95982.00
2023-03-03T05:56:18.522Z,95941.31
2023-03-03T05:58:45.914Z,96019.38
2023-03-03T06:01:12.747Z,96019.38
2023-03-03T06:03:39.200Z,95968.56
2023-03-03T06:06:05.965Z,96007.41
2023-03-03T06:08:32.766Z,95971.88
2023-03-03T06:10:59.264Z,95986.38
2023-03-03T06:13:26.033Z,95981.13
2023-03-03T06:15:52.656Z,96039.53
2023-03-03T06:18:19.952Z,96032.16
2023-03-03T06:20:51.638Z,96034.84
2023-03-03T06:23:18.075Z,96008.06
2023-03-03T06:25:44.718Z,96045.97
2023-03-03T06:28:11.151Z,96049.41
2023-03-03T06:30:37.970Z,96048.56
2023-03-03T06:33:05.472Z,96041.41
2023-03-03T06:35:32.062Z,96000.81
2023-03-03T06:37:58.628Z,96027.63
2023-03-03T06:40:25.057Z,96010.09
2023-03-03T06:42:51.546Z,95989.97
2023-03-03T06:45:18.119Z,96046.84
2023-03-03T06:47:44.562Z,96054.50
2023-03-03T06:50:12.628Z,96057.22
2023-03-03T06:52:39.162Z,96044.28
2023-03-03T06:55:22.683Z,96046.53
2023-03-03T06:57:49.194Z,96052.38
2023-03-03T07:00:23.179Z,96062.72
2023-03-03T07:03:28.198Z,96062.91
2023-03-03T07:05:54.629Z,96059.69
2023-03-03T07:08:23.864Z,96076.72
2023-03-03T07:10:52.326Z,96068.69
2023-03-03T07:13:27.749Z,96060.53
2023-03-03T07:15:56.497Z,96034.78
2023-03-03T07:18:39.691Z,96074.91
2023-03-03T07:21:13.513Z,96082.06
2023-03-03T07:23:42.435Z,96073.69
2023-03-03T07:26:22.245Z,96085.94
2023-03-03T07:28:58.391Z,96092.63
2023-03-03T07:31:27.799Z,96091.53
2023-03-03T07:33:55.433Z,96078.34
2023-03-03T07:36:29.773Z,96084.44
2023-03-03T07:39:01.144Z,96085.22
2023-03-03T07:41:28.807Z,96106.81
2023-03-03T07:44:06.558Z,96102.50
2023-03-03T07:46:48.461Z,96104.84
2023-03-03T07:49:39.770Z,96098.88
2023-03-03T07:52:26.248Z,96102.25
2023-03-03T07:54:54.081Z,96096.06
2023-03-03T07:57:35.035Z,96105.06
2023-03-03T08:00:33.323Z,96081.03
2023-03-03T08:03:05.118Z,96111.34
2023-03-03T08:05:31.616Z,96099.59
2023-03-03T08:08:10.652Z,96111.84
2023-03-03T08:10:54.589Z,96109.41
2023-03-03T08:13:25.178Z,96108.50
2023-03-03T08:16:11.919Z,96109.63
2023-03-03T08:18:47.739Z,96105.59
2023-03-03T08:21:26.257Z,96101.97
2023-03-03T08:23:53.688Z,96081.44
2023-03-03T08:26:22.421Z,96104.63
2023-03-03T08:28:49.481Z,96108.25
2023-03-03T08:31:28.002Z,96087.50
2023-03-03T08:34:01.030Z,96094.31
2023-03-03T08:36:27.689Z,96114.38
2023-03-03T08:38:54.116Z,96100.44
2023-03-03T08:41:20.583Z,96103.16
2023-03-03T08:43:47.000Z,96112.91
2023-03-03T08:46:13.506Z,96107.00
2023-03-03T08:48:39.984Z,96105.41
2023-03-03T08:51:06.696Z,96086.84
2023-03-03T08:53:36.437Z,96088.06
2023-03-03T08:56:03.507Z,96113.47
2023-03-03T08:58:35.070Z,96110.75
2023-03-03T09:01:02.212Z,96138.63
2023-03-03T09:03:29.866Z,96136.72
2023-03-03T09:05:56.332Z,96128.88
2023-03-03T09:08:22.830Z,96126.28
2023-03-03T09:10:49.300Z,96120.25
2023-03-03T09:13:19.084Z,96128.22
2023-03-03T09:15:46.548Z,96143.84
2023-03-03T09:18:31.407Z,96136.22
2023-03-03T09:20:57.864Z,96126.25
2023-03-03T09:23:38.909Z,96136.91
2023-03-03T09:26:11.481Z,96146.75
2023-03-03T09:28:38.254Z,96136.06
2023-03-03T09:31:21.990Z,96143.91
2023-03-03T09:33:51.937Z,96138.06
2023-03-03T09:36:38.077Z,96150.03
2023-03-03T09:39:19.792Z,96155.22
2023-03-03T09:42:16.899Z,96158.81
2023-03-03T09:45:01.552Z,96159.97
2023-03-03T09:47:42.943Z,96150.91
2023-03-03T09:50:47.907Z,96150.22
2023-03-03T09:53:48.501Z,96169.91
2023-03-03T09:56:46.912Z,96166.72
2023-03-03T09:59:22.119Z,96168.50
2023-03-03T10:01:57.627Z,96160.94
2023-03-03T10:04:44.320Z,96161.09
2023-03-03T10:07:32.958Z,96170.63
2023-03-03T10:10:30.892Z,96173.81
2023-03-03T10:13:19.124Z,96172.56
2023-03-03T10:16:37.294Z,96179.22
2023-03-03T10:19:24.525Z,96176.63
2023-03-03T10:22:19.562Z,96171.28
2023-03-03T10:25:19.600Z,96183.03
2023-03-03T10:28:07.944Z,96179.44
2023-03-03T10:31:05.595Z,96176.97
2023-03-03T10:33:49.878Z,96175.06
2023-03-03T10:36:25.253Z,96189.13
2023-03-03T10:39:12.358Z,96160.75
2023-03-03T10:41:47.916Z,96184.72
2023-03-03T10:44:37.601Z,96177.22
2023-03-03T10:47:22.243Z,96179.16
2023-03-03T10:50:01.250Z,96174.28
2023-03-03T10:52:44.287Z,96175.38
2023-03-03T10:55:44.353Z,96175.41
2023-03-03T10:58:48.444Z,96179.06
2023-03-03T11:01:46.271Z,96171.00
2023-03-03T11:04:42.488Z,96186.34
2023-03-03T11:07:26.928Z,96180.31
2023-03-03T11:10:23.955Z,96188.19
2023-03-03T11:13:10.756Z,96177.97
2023-03-03T11:16:18.951Z,96193.19
2023-03-03T11:19:02.365Z,96197.00
2023-03-03T11:22:19.404Z,96179.00
2023-03-03T11:25:10.494Z,96193.00
2023-03-03T11:27:50.242Z,96181.13
2023-03-03T11:30:34.356Z,96186.91
2023-03-03T11:33:14.932Z,96175.41
2023-03-03T11:35:49.922Z,96169.00
2023-03-03T11:38:50.719Z,96179.31
2023-03-03T11:41:29.267Z,96160.44
2023-03-03T11:44:20.926Z,96166.22
2023-03-03T11:46:56.247Z,96174.78
2023-03-03T11:49:42.967Z,96167.97
2023-03-03T11:52:32.689Z,96158.69
2023-03-03T11:55:24.856Z,96169.38
2023-03-03T11:58:00.956Z,96176.19
2023-03-03T12:00:41.069Z,96155.75
2023-03-03T12:03:17.356Z,96157.28
2023-03-03T12:06:02.256Z,96160.28
2023-03-03T12:09:06.747Z,96156.50
2023-03-03T12:11:39.511Z,96149.81
2023-03-03T12:14:31.268Z,96130.97
2023-03-03T12:17:01.731Z,96144.66
2023-03-03T12:19:49.938Z,96144.75
2023-03-03T12:22:19.385Z,96146.38
2023-03-03T12:25:04.835Z,96146.38
2023-03-03T12:28:08.634Z,96149.50
2023-03-03T12:30:59.342Z,96143.66
2023-03-03T12:33:53.062Z,96146.81
2023-03-03T12:36:50.694Z,96144.19
2023-03-03T12:39:37.453Z,96147.19
2023-03-03T12:42:14.778Z,96137.31
2023-03-03T12:44:51.070Z,96144.03
2023-03-03T12:47:37.963Z,96126.00
2023-03-03T12:50:31.062Z,96133.09
2023-03-03T12:53:09.870Z,96124.19
2023-03-03T12:55:58.532Z,96126.63
2023-03-03T12:58:36.836Z,96133.47
2023-03-03T13:01:17.554Z,96139.78
2023-03-03T13:04:02.133Z,96111.41
2023-03-03T13:06:31.527Z,96125.34
2023-03-03T13:09:27.035Z,96113.06
2023-03-03T13:12:28.126Z,96134.97
2023-03-03T13:15:06.975Z,96134.06
2023-03-03T13:17:56.341Z,96136.78
2023-03-03T13:20:27.525Z,96125.22
2023-03-03T13:23:25.426Z,96119.97
2023-03-03T13:26:05.905Z,96122.59
2023-03-03T13:28:57.767Z,96115.94
2023-03-03T13:31:34.472Z,96096.56
2023-03-03T13:34:02.211Z,96105.06
2023-03-03T13:36:58.123Z,96119.56
2023-03-03T13:39:33.299Z,96119.59
2023-03-03T13:42:28.727Z,96108.94
2023-03-03T13:44:56.738Z,96086.50
2023-03-03T13:47:29.257Z,96110.50
2023-03-03T13:50:19.187Z,96113.34
2023-03-03T13:53:04.776Z,96108.81
2023-03-03T13:55:41.870Z,96096.41
2023-03-03T13:58:43.256Z,96102.41
2023-03-03T14:01:22.566Z,96094.13
2023-03-03T14:03:58.578Z,96099.84
2023-03-03T14:06:27.509Z,96084.28
2023-03-03T14:09:03.668Z,96097.22
2023-03-03T14:11:34.212Z,96069.72
2023-03-03T14:14:30.566Z,96090.69
2023-03-03T14:17:22.872Z,96091.22
2023-03-03T14:20:06.649Z,96061.78
2023-03-03T14:23:05.132Z,96059.66
2023-03-03T14:25:57.851Z,96076.53
2023-03-03T14:28:27.558Z,96075.78
2023-03-03T14:30:56.889Z,96087.28
2023-03-03T14:33:30.832Z,96085.41
2023-03-03T14:35:57.498Z,96085.94
2023-03-03T14:38:46.321Z,96075.16
2023-03-03T14:41:14.768Z,96078.94
2023-03-03T14:43:43.929Z,96078.44
2023-03-03T14:46:31.843Z,96049.25
2023-03-03T14:49:00.991Z,96074.00
2023-03-03T14:51:39.865Z,96078.88
2023-03-03T14:54:19.785Z,96068.66
2023-03-03T14:57:20.590Z,96084.81
2023-03-03T15:00:00.961Z,96073.63
2023-03-03T15:02:31.078Z,96078.34
2023-03-03T15:05:18.824Z,96087.31
2023-03-03T15:07:48.834Z,96085.91
2023-03-03T15:10:27.929Z,96077.03
2023-03-03T15:12:54.691Z,96077.31
2023-03-03T15:15:25.559Z,96076.44
2023-03-03T15:17:54.105Z,96078.63
2023-03-03T15:20:43.194Z,96077.31
2023-03-03T15:23:09.646Z,96083.13
2023-03-03T15:25:49.732Z,96088.25
2023-03-03T15:28:28.002Z,96082.09
2023-03-03T15:31:12.987Z,96085.59
2023-03-03T15:33:51.868Z,96088.75
2023-03-03T15:36:52.492Z,96084.94
2023-03-03T15:39:27.956Z,96087.56
2023-03-03T15:42:10.384Z,96069.66
2023-03-03T15:44:59.040Z,96081.59
2023-03-03T15:47:53.687Z,96072.63
2023-03-03T15:50:28.897Z,96073.00
2023-03-03T15:52:55.436Z,96089.56
2023-03-03T15:56:02.442Z,96066.47
2023-03-03T15:58:40.497Z,96087.75
2023-03-03T16:01:28.755Z,96073.28
2023-03-03T16:04:10.969Z,96084.63
2023-03-03T16:06:45.964Z,96089.44
2023-03-03T16:09:29.809Z,96085.75
2023-03-03T16:12:07.624Z,96086.53
2023-03-03T16:14:51.278Z,96082.75
2023-03-03T16:17:28.717Z,96087.34
2023-03-03T16:20:28.136Z,96103.06
2023-03-03T16:23:15.422Z,96064.28
2023-03-03T16:25:59.290Z,96090.34
2023-03-03T16:28:50.986Z,96099.81
2023-03-03T16:31:30.789Z,96097.41
2023-03-03T16:34:19.200Z,96103.88
2023-03-03T16:37:27.810Z,96099.22
2023-03-03T16:39:59.116Z,96107.28
2023-03-03T16:42:28.908Z,96082.16
2023-03-03T16:45:14.001Z,96124.22
2023-03-03T16:47:58.825Z,96124.72
2023-03-03T16:50:40.495Z,96126.22
2023-03-03T16:53:26.297Z,96130.47
2023-03-03T16:56:38.004Z,96132.81
2023-03-03T16:59:33.430Z,96128.81
2023-03-03T17:02:41.344Z,96140.28
2023-03-03T17:05:23.295Z,96142.34
2023-03-03T17:08:25.695Z,96129.56
2023-03-03T17:11:13.531Z,96136.63
2023-03-03T17:13:52.872Z,96136.88
2023-03-03T17:16:28.337Z,96123.63
2023-03-03T17:19:14.096Z,96133.59
2023-03-03T17:22:14.592Z,96141.84
2023-03-03T17:24:55.161Z,96142.84
2023-03-03T17:27:34.202Z,96138.00
2023-03-03T17:30:06.791Z,96153.97
2023-03-03T17:32:36.480Z,96158.41
2023-03-03T17:35:09.000Z,96156.69
2023-03-03T17:37:42.616Z,96160.28
2023-03-03T17:40:34.691Z,96129.78
2023-03-03T17:43:21.509Z,96170.50
2023-03-03T17:45:52.691Z,96157.19
2023-03-03T17:48:41.966Z,96183.75
2023-03-03T17:51:39.605Z,96182.88
2023-03-03T17:54:19.246Z,96183.59
2023-03-03T17:57:22.200Z,96184.53
2023-03-03T18:00:22.088Z,96187.22
2023-03-03T18:03:33.182Z,96184.19
2023-03-03T18:06:17.563Z,96183.88
2023-03-03T18:09:22.643Z,96191.88
2023-03-03T18:12:10.004Z,96193.81
2023-03-03T18:14:57.665Z,96195.53
2023-03-03T18:17:41.032Z,96195.47
2023-03-03T18:20:38.594Z,96196.84
2023-03-03T18:23:35.315Z,96202.22
2023-03-03T18:26:23.501Z,96188.09
2023-03-03T18:28:50.988Z,96191.38
2023-03-03T18:31:28.926Z,96201.16
2023-03-03T18:34:24.326Z,96189.16
2023-03-03T18:37:00.283Z,96195.16
2023-03-03T18:39:41.075Z,96215.38
2023-03-03T18:42:27.281Z,96213.13
2023-03-03T18:44:53.880Z,96182.38
2023-03-03T18:47:53.078Z,96184.44
2023-03-03T18:50:33.877Z,96214.16
2023-03-03T18:53:25.385Z,96211.66
2023-03-03T18:55:57.621Z,96214.59
2023-03-03T18:58:37.385Z,96204.53
2023-03-03T19:01:31.949Z,96220.63
2023-03-03T19:04:13.627Z,96210.63
2023-03-03T19:06:43.004Z,96213.94
2023-03-03T19:09:17.403Z,96216.19
2023-03-03T19:11:57.176Z,96215.38
2023-03-03T19:14:27.828Z,96226.72
2023-03-03T19:16:59.519Z,96219.44
2023-03-03T19:19:33.564Z,96232.84
2023-03-03T19:22:22.270Z,96231.25
2023-03-03T19:25:12.692Z,96225.34
2023-03-03T19:27:47.907Z,96218.81
2023-03-03T19:30:35.985Z,96230.06
2023-03-03T19:33:18.421Z,96205.16
2023-03-03T19:35:54.567Z,96218.91
2023-03-03T19:38:21.359Z,96225.06
2023-03-03T19:41:00.981Z,96224.59
2023-03-03T19:44:14.272Z,96224.59
2023-03-03T19:47:04.519Z,96237.81
2023-03-03T19:50:05.118Z,96236.41
2023-03-03T19:52:41.924Z,96238.09
2023-03-03T19:55:40.538Z,96228.19
2023-03-03T19:58:22.203Z,96240.00
2023-03-03T20:00:57.449Z,96221.19
2023-03-03T20:03:38.948Z,96255.25
2023-03-03T20:06:11.330Z,96251.06
2023-03-03T20:08:48.120Z,96240.00
2023-03-03T20:11:46.286Z,96254.19
2023-03-03T20:14:15.672Z,96252.38
2023-03-03T20:16:48.147Z,96228.16
2023-03-03T20:19:29.572Z,96242.09
2023-03-03T20:22:15.193Z,96259.19
2023-03-03T20:24:55.198Z,96254.31
2023-03-03T20:27:35.769Z,96243.13
2023-03-03T20:30:12.794Z,96257.88
2023-03-03T20:33:02.133Z,96262.38
2023-03-03T20:35:51.102Z,96237.06
2023-03-03T20:38:17.456Z,96261.69
2023-03-03T20:41:09.640Z,96261.13
2023-03-03T20:43:54.691Z,96265.19
2023-03-03T20:47:01.251Z,96263.06
2023-03-03T20:49:50.807Z,96264.44
2023-03-03T20:52:22.707Z,96266.47
2023-03-03T20:55:40.306Z,96270.50
2023-03-03T20:58:13.105Z,96251.22
2023-03-03T21:01:11.455Z,96263.13
2023-03-03T21:03:41.964Z,96261.19
2023-03-03T21:06:17.940Z,96231.59
2023-03-03T21:08:54.646Z,96264.63
2023-03-03T21:11:24.084Z,96270.25
2023-03-03T21:13:56.663Z,96271.47
2023-03-03T21:16:23.073Z,96264.53
2023-03-03T21:19:12.638Z,96272.97
2023-03-03T21:21:41.623Z,96273.94
2023-03-03T21:24:19.608Z,96261.84
2023-03-03T21:26:48.830Z,96264.97
2023-03-03T21:29:29.583Z,96270.75
2023-03-03T21:32:07.717Z,96256.66
2023-03-03T21:34:39.761Z,96277.22
2023-03-03T21:37:12.416Z,96275.63
2023-03-03T21:39:41.114Z,96258.16
2023-03-03T21:42:10.119Z,96257.78
2023-03-03T21:44:41.270Z,96274.28
2023-03-03T21:47:10.301Z,96268.09
2023-03-03T21:49:41.177Z,96267.72
2023-03-03T21:52:07.785Z,96261.00
2023-03-03T21:54:34.259Z,96277.13
2023-03-03T21:57:00.698Z,96280.97
2023-03-03T21:59:27.353Z,96278.56
2023-03-03T22:01:53.824Z,96242.81
2023-03-03T22:04:20.468Z,96272.66
2023-03-03T22:06:47.190Z,96254.34
2023-03-03T22:09:14.104Z,96229.06
2023-03-03T22:11:40.625Z,96270.66
2023-03-03T22:14:07.700Z,96281.84
2023-03-03T22:16:34.967Z,96261.75
2023-03-03T22:19:02.813Z,96259.94
2023-03-03T22:21:29.713Z,96270.91
2023-03-03T22:23:56.151Z,96255.00
2023-03-03T22:26:22.816Z,96263.16
2023-03-03T22:28:52.318Z,96281.09
2023-03-03T22:31:21.336Z,96276.78
2023-03-03T22:33:49.870Z,96276.16
2023-03-03T22:36:18.850Z,96249.09
2023-03-03T22:38:46.700Z,96282.34
2023-03-03T22:41:13.730Z,96285.16
2023-03-03T22:43:41.753Z,96259.31
2023-03-03T22:46:08.993Z,96263.13
2023-03-03T22:48:45.373Z,96236.81
2023-03-03T22:51:14.624Z,96228.47
2023-03-03T22:53:46.386Z,96255.78
2023-03-03T22:56:13.002Z,96283.25
2023-03-03T22:58:39.510Z,96244.22
2023-03-03T23:01:05.988Z,96282.06
2023-03-03T23:03:32.856Z,96238.66
2023-03-03T23:05:59.699Z,96265.09
2023-03-03T23:08:27.449Z,96259.91
2023-03-03T23:10:53.874Z,96283.25
2023-03-03T23:13:21.510Z,96265.56
2023-03-03T23:15:47.983Z,96274.72
2023-03-03T23:18:14.428Z,96230.50
2023-03-03T23:20:45.700Z,96258.44
2023-03-03T23:23:12.220Z,96268.00
2023-03-03T23:25:38.924Z,96258.91
2023-03-03T23:28:05.667Z,96264.56
2023-03-03T23:30:32.142Z,96264.94
2023-03-03T23:32:58.561Z,96253.19
2023-03-03T23:35:25.115Z,96272.53
2023-03-03T23:37:51.712Z,96256.44
2023-03-03T23:40:18.347Z,96271.75
2023-03-03T23:42:44.869Z,96268.09
2023-03-03T23:45:12.829Z,96269.53
2023-03-03T23:47:39.571Z,96268.94
2023-03-03T23:50:06.542Z,96256.63
2023-03-03T23:52:33.032Z,96285.75
2023-03-03T23:54:59.485Z,96285.00
2023-03-03T23:57:25.956Z,96260.50
2023-03-03T23:59:52.394Z,96273.06
